Morrow, Georgia
Current Conditions -  °F | °C
As of 2:52 AM on Saturday 25 Oct 2014 (Local Time) from KATL Reporting Station
Clear Clear  
Wind Chill: 51°   Ceiling: Unl
Heat Index: 51°   Visibility: 10mi
Dew Point: 44°   Wind: 7mph
Humidity: 77%   Direction: 310°NW
Pressure: 30.02"   Gusts: NA
Location:  33.58°N, 84.34°W
Report Text: KATL 250652Z 31006KT 10SM CLR 11/07 A3002 RMK AO2 SLP164 T01060067
Loading
Personal Weather Stations






























Interactive Weather Map
Tropical Storm Tracking
New forecast layout! Learn more

10-Day Weather Forecast

Advertisements
Track Severe Weather on mobile